KAL400 RKSI-RPLL
Flight info
| Callsign | KAL400 |
|---|---|
| Flight time | 3h 17m |
| Altitude | 36000 |
| Route | BOPTA3H BOPTA Z51 BEDES Y711 KIDOS Z81 CJU Y572 RUGMA Y579 RUSAR Y27 AMMEK/N0486F380 Y27 SAKON A582 POLIO POLIO1C |
| Aircraft | B77W/H-SDE1E2E3FGHIJ2J3J4J5M1RWXY/LB1D1 |
Departure
| Time | 2026-05-06 20:44 |
|---|---|
| Airport | Incheon International Airport (RKSI) |
Arrival
| Time | 2026-05-07 00:01 |
|---|---|
| Airport | Ninoy Aquino International Airport (RPLL) |
| Time | Latitude | Longitude | Altitude | Speed | Heading |
|---|---|---|---|---|---|
| 2026-05-06 20:03 | 37.44554 | 126.44689 | 37 ft | 0 kts | 75° |
| 2026-05-06 20:21 | 37.44549 | 126.44664 | 36 ft | 4 kts | 77° |
| 2026-05-06 20:21 | 37.44543 | 126.44636 | 35 ft | 3 kts | 75° |
| 2026-05-06 20:21 | 37.44538 | 126.44605 | 36 ft | 4 kts | 91° |
| 2026-05-06 20:21 | 37.44542 | 126.44576 | 35 ft | 4 kts | 120° |
| 2026-05-06 20:22 | 37.44556 | 126.44556 | 34 ft | 4 kts | 153° |
| 2026-05-06 20:22 | 37.44580 | 126.44545 | 36 ft | 4 kts | 164° |
| 2026-05-06 20:22 | 37.44604 | 126.44534 | 35 ft | 3 kts | 148° |
| 2026-05-06 20:22 | 37.44608 | 126.44532 | 37 ft | 0 kts | 145° |
| 2026-05-06 20:26 | 37.44593 | 126.44543 | 37 ft | 6 kts | 149° |
| 2026-05-06 20:26 | 37.44559 | 126.44528 | 37 ft | 6 kts | 223° |
| 2026-05-06 20:27 | 37.44532 | 126.44490 | 37 ft | 6 kts | 230° |
| 2026-05-06 20:27 | 37.44519 | 126.44459 | 37 ft | 0 kts | 256° |
| 2026-05-06 20:36 | 37.44524 | 126.44435 | 37 ft | 11 kts | 296° |
| 2026-05-06 20:36 | 37.44580 | 126.44377 | 37 ft | 10 kts | 323° |
| 2026-05-06 20:37 | 37.44712 | 126.44258 | 37 ft | 28 kts | 326° |
| 2026-05-06 20:37 | 37.44871 | 126.44117 | 37 ft | 28 kts | 324° |
| 2026-05-06 20:37 | 37.45030 | 126.43975 | 37 ft | 28 kts | 324° |
| 2026-05-06 20:37 | 37.45207 | 126.43817 | 37 ft | 42 kts | 324° |
| 2026-05-06 20:38 | 37.45457 | 126.43607 | 37 ft | 40 kts | 316° |
| 2026-05-06 20:38 | 37.45671 | 126.43405 | 37 ft | 37 kts | 324° |
| 2026-05-06 20:38 | 37.45878 | 126.43218 | 35 ft | 36 kts | 324° |
| 2026-05-06 20:38 | 37.46075 | 126.43040 | 37 ft | 34 kts | 324° |
| 2026-05-06 20:39 | 37.46267 | 126.42878 | 37 ft | 32 kts | 324° |
| 2026-05-06 20:39 | 37.46462 | 126.42703 | 37 ft | 44 kts | 324° |
| 2026-05-06 20:39 | 37.46786 | 126.42419 | 37 ft | 65 kts | 324° |
| 2026-05-06 20:39 | 37.46956 | 126.42231 | 37 ft | 13 kts | 280° |
| 2026-05-06 20:40 | 37.46922 | 126.42121 | 37 ft | 16 kts | 233° |
| 2026-05-06 20:40 | 37.46813 | 126.41981 | 37 ft | 16 kts | 188° |
| 2026-05-06 20:40 | 37.46775 | 126.42001 | 37 ft | 2 kts | 136° |
| 2026-05-06 20:40 | 37.46764 | 126.42013 | 37 ft | 2 kts | 140° |
| 2026-05-06 20:41 | 37.46749 | 126.42028 | 37 ft | 3 kts | 143° |
| 2026-05-06 20:41 | 37.46747 | 126.42030 | 37 ft | 0 kts | 143° |
| 2026-05-06 20:41 | 37.46743 | 126.42033 | 37 ft | 1 kts | 143° |
| 2026-05-06 20:41 | 37.46738 | 126.42038 | 37 ft | 1 kts | 143° |
| 2026-05-06 20:42 | 37.46731 | 126.42044 | 37 ft | 1 kts | 143° |
| 2026-05-06 20:42 | 37.46725 | 126.42050 | 37 ft | 1 kts | 143° |
| 2026-05-06 20:42 | 37.46719 | 126.42056 | 37 ft | 1 kts | 143° |
| 2026-05-06 20:42 | 37.46709 | 126.42065 | 37 ft | 6 kts | 143° |
| 2026-05-06 20:43 | 37.46581 | 126.42178 | 38 ft | 38 kts | 146° |
| 2026-05-06 20:43 | 37.46213 | 126.42505 | 38 ft | 102 kts | 146° |
| 2026-05-06 20:43 | 37.45434 | 126.43194 | 41 ft | 168 kts | 145° |
| 2026-05-06 20:43 | 37.44383 | 126.44098 | 466 ft | 185 kts | 146° |
| 2026-05-06 20:44 | 37.43322 | 126.44986 | 1403 ft | 179 kts | 154° |
| 2026-05-06 20:44 | 37.42247 | 126.45766 | 2138 ft | 185 kts | 157° |
| 2026-05-06 20:44 | 37.41056 | 126.46618 | 2391 ft | 213 kts | 156° |
| 2026-05-06 20:44 | 37.39695 | 126.47608 | 2767 ft | 235 kts | 155° |
| 2026-05-06 20:45 | 37.38226 | 126.48603 | 3363 ft | 242 kts | 163° |
| 2026-05-06 20:45 | 37.36594 | 126.49217 | 4039 ft | 247 kts | 171° |
| 2026-05-06 20:45 | 37.34904 | 126.49742 | 4795 ft | 253 kts | 171° |
| 2026-05-06 20:45 | 37.33178 | 126.50291 | 5513 ft | 259 kts | 170° |
| 2026-05-06 20:46 | 37.31421 | 126.50870 | 6261 ft | 263 kts | 169° |
| 2026-05-06 20:46 | 37.29659 | 126.51459 | 6974 ft | 267 kts | 169° |
| 2026-05-06 20:46 | 37.27864 | 126.52086 | 7683 ft | 269 kts | 165° |
| 2026-05-06 20:46 | 37.26135 | 126.53082 | 8350 ft | 277 kts | 156° |
| 2026-05-06 20:47 | 37.24447 | 126.54266 | 9110 ft | 279 kts | 154° |
| 2026-05-06 20:47 | 37.22753 | 126.55475 | 9865 ft | 281 kts | 155° |
| 2026-05-06 20:47 | 37.21037 | 126.56682 | 10516 ft | 285 kts | 155° |
| 2026-05-06 20:47 | 37.19290 | 126.57888 | 11212 ft | 288 kts | 156° |
| 2026-05-06 20:48 | 37.17520 | 126.59095 | 11974 ft | 291 kts | 157° |
| 2026-05-06 20:48 | 37.15799 | 126.60260 | 12687 ft | 294 kts | 157° |
| 2026-05-06 20:48 | 37.13992 | 126.61480 | 13007 ft | 297 kts | 157° |
| 2026-05-06 20:48 | 37.12107 | 126.62471 | 12972 ft | 290 kts | 175° |
| 2026-05-06 20:49 | 37.10161 | 126.62580 | 13000 ft | 283 kts | 187° |
| 2026-05-06 20:49 | 37.08174 | 126.62523 | 12948 ft | 287 kts | 186° |
| 2026-05-06 20:49 | 37.06076 | 126.62465 | 13002 ft | 317 kts | 186° |
| 2026-05-06 20:49 | 37.03741 | 126.62413 | 13010 ft | 354 kts | 185° |
| 2026-05-06 20:50 | 37.01182 | 126.62374 | 12997 ft | 375 kts | 185° |
| 2026-05-06 20:50 | 36.98555 | 126.62347 | 12985 ft | 379 kts | 184° |
| 2026-05-06 20:50 | 36.95895 | 126.62364 | 13500 ft | 385 kts | 184° |
| 2026-05-06 20:50 | 36.93208 | 126.62407 | 14459 ft | 387 kts | 184° |
| 2026-05-06 20:51 | 36.90517 | 126.62447 | 15474 ft | 387 kts | 184° |
| 2026-05-06 20:51 | 36.87814 | 126.62468 | 16412 ft | 389 kts | 186° |
| 2026-05-06 20:51 | 36.85085 | 126.62348 | 17288 ft | 392 kts | 188° |
| 2026-05-06 20:51 | 36.82344 | 126.62150 | 18135 ft | 396 kts | 189° |
| 2026-05-06 20:52 | 36.79611 | 126.61958 | 18887 ft | 401 kts | 189° |
| 2026-05-06 20:52 | 36.76806 | 126.61785 | 19564 ft | 406 kts | 189° |
| 2026-05-06 20:52 | 36.73962 | 126.61653 | 20239 ft | 413 kts | 185° |
| 2026-05-06 20:52 | 36.71078 | 126.62184 | 20829 ft | 426 kts | 172° |
| 2026-05-06 20:53 | 36.68189 | 126.63208 | 21353 ft | 435 kts | 171° |
| 2026-05-06 20:53 | 36.65265 | 126.64264 | 22043 ft | 439 kts | 171° |
| 2026-05-06 20:53 | 36.62319 | 126.65311 | 22766 ft | 441 kts | 171° |
| 2026-05-06 20:53 | 36.59347 | 126.66341 | 23423 ft | 446 kts | 171° |
| 2026-05-06 20:54 | 36.56331 | 126.67365 | 23946 ft | 451 kts | 171° |
| 2026-05-06 20:54 | 36.53286 | 126.68387 | 24439 ft | 456 kts | 171° |
| 2026-05-06 20:54 | 36.51250 | 126.69067 | 24771 ft | 459 kts | 172° |
| 2026-05-06 20:54 | 36.48148 | 126.70104 | 25276 ft | 463 kts | 171° |
| 2026-05-06 20:55 | 36.45020 | 126.71150 | 25761 ft | 468 kts | 171° |
| 2026-05-06 20:55 | 36.41863 | 126.72206 | 26237 ft | 472 kts | 171° |
| 2026-05-06 20:55 | 36.38677 | 126.73270 | 26720 ft | 476 kts | 171° |
| 2026-05-06 20:55 | 36.34417 | 126.74699 | 27329 ft | 482 kts | 171° |
| 2026-05-06 20:56 | 36.32229 | 126.75436 | 27640 ft | 484 kts | 171° |
| 2026-05-06 20:56 | 36.28964 | 126.76537 | 28081 ft | 488 kts | 171° |
| 2026-05-06 20:56 | 36.24591 | 126.78011 | 28635 ft | 493 kts | 171° |
| 2026-05-06 20:56 | 36.22352 | 126.78764 | 28894 ft | 496 kts | 171° |
| 2026-05-06 20:57 | 36.19045 | 126.79817 | 29259 ft | 496 kts | 174° |
| 2026-05-06 20:57 | 36.15642 | 126.80481 | 29607 ft | 494 kts | 180° |
| 2026-05-06 20:57 | 36.12220 | 126.80745 | 29961 ft | 492 kts | 185° |
| 2026-05-06 20:57 | 36.08808 | 126.80630 | 30374 ft | 486 kts | 191° |
| 2026-05-06 20:58 | 36.05461 | 126.80238 | 30896 ft | 481 kts | 192° |
| 2026-05-06 20:58 | 36.02131 | 126.79829 | 31443 ft | 478 kts | 192° |
| 2026-05-06 20:58 | 35.98815 | 126.79434 | 31929 ft | 476 kts | 192° |
| 2026-05-06 20:58 | 35.95519 | 126.79062 | 32379 ft | 476 kts | 191° |
| 2026-05-06 20:59 | 35.92220 | 126.78704 | 32818 ft | 474 kts | 191° |
| 2026-05-06 20:59 | 35.88985 | 126.78357 | 33266 ft | 473 kts | 191° |
| 2026-05-06 20:59 | 35.85709 | 126.78006 | 33713 ft | 471 kts | 192° |
| 2026-05-06 20:59 | 35.82447 | 126.77656 | 34107 ft | 470 kts | 192° |
| 2026-05-06 21:00 | 35.79181 | 126.77304 | 34466 ft | 469 kts | 192° |
| 2026-05-06 21:00 | 35.75934 | 126.76954 | 34819 ft | 467 kts | 192° |
| 2026-05-06 21:00 | 35.72692 | 126.76605 | 35176 ft | 466 kts | 192° |
| 2026-05-06 21:00 | 35.69465 | 126.76258 | 35521 ft | 465 kts | 192° |
| 2026-05-06 21:01 | 35.66290 | 126.75917 | 35857 ft | 463 kts | 192° |
| 2026-05-06 21:01 | 35.59809 | 126.75217 | 35992 ft | 469 kts | 192° |
| 2026-05-06 21:02 | 35.53342 | 126.74527 | 35996 ft | 463 kts | 191° |
| 2026-05-06 21:02 | 35.46934 | 126.73843 | 36009 ft | 461 kts | 191° |
| 2026-05-06 21:03 | 35.40545 | 126.73165 | 36006 ft | 461 kts | 191° |
| 2026-05-06 21:03 | 35.34155 | 126.72488 | 36013 ft | 460 kts | 191° |
| 2026-05-06 21:04 | 35.27768 | 126.71812 | 36015 ft | 461 kts | 191° |
| 2026-05-06 21:04 | 35.21369 | 126.71135 | 36022 ft | 461 kts | 191° |
| 2026-05-06 21:05 | 35.14997 | 126.70463 | 36019 ft | 463 kts | 191° |
| 2026-05-06 21:05 | 35.08577 | 126.69786 | 36020 ft | 463 kts | 191° |
| 2026-05-06 21:06 | 35.02134 | 126.69104 | 36011 ft | 464 kts | 191° |
| 2026-05-06 21:06 | 34.95699 | 126.68423 | 36028 ft | 464 kts | 191° |
| 2026-05-06 21:07 | 34.89296 | 126.67747 | 36016 ft | 465 kts | 191° |
| 2026-05-06 21:07 | 34.82845 | 126.67068 | 36027 ft | 465 kts | 190° |
| 2026-05-06 21:08 | 34.76391 | 126.66389 | 36030 ft | 465 kts | 190° |
| 2026-05-06 21:08 | 34.69929 | 126.65710 | 36016 ft | 466 kts | 190° |
| 2026-05-06 21:09 | 34.63455 | 126.65032 | 36020 ft | 467 kts | 190° |
| 2026-05-06 21:09 | 34.57021 | 126.64358 | 36016 ft | 467 kts | 190° |
| 2026-05-06 21:10 | 34.50537 | 126.63681 | 36030 ft | 468 kts | 190° |
| 2026-05-06 21:10 | 34.44052 | 126.63004 | 36015 ft | 468 kts | 190° |
| 2026-05-06 21:11 | 34.37557 | 126.62315 | 36034 ft | 468 kts | 190° |
| 2026-05-06 21:11 | 34.31050 | 126.61609 | 36024 ft | 470 kts | 190° |
| 2026-05-06 21:12 | 34.24527 | 126.60906 | 36028 ft | 471 kts | 190° |
| 2026-05-06 21:12 | 34.18028 | 126.60225 | 36027 ft | 471 kts | 190° |
| 2026-05-06 21:13 | 34.11479 | 126.59546 | 36027 ft | 472 kts | 190° |
| 2026-05-06 21:13 | 34.04932 | 126.58865 | 36026 ft | 472 kts | 190° |
| 2026-05-06 21:14 | 33.98387 | 126.58183 | 36023 ft | 472 kts | 190° |
| 2026-05-06 21:14 | 33.91886 | 126.57508 | 36021 ft | 471 kts | 190° |
| 2026-05-06 21:15 | 33.85344 | 126.56877 | 36022 ft | 473 kts | 187° |
| 2026-05-06 21:15 | 33.78734 | 126.57265 | 36023 ft | 478 kts | 179° |
| 2026-05-06 21:16 | 33.72103 | 126.58166 | 36017 ft | 479 kts | 179° |
| 2026-05-06 21:16 | 33.65477 | 126.59035 | 36019 ft | 478 kts | 179° |
| 2026-05-06 21:17 | 33.58859 | 126.59866 | 36017 ft | 478 kts | 179° |
| 2026-05-06 21:17 | 33.52280 | 126.60684 | 36021 ft | 478 kts | 179° |
| 2026-05-06 21:18 | 33.45650 | 126.61510 | 36020 ft | 479 kts | 179° |
| 2026-05-06 21:18 | 33.39033 | 126.62458 | 36022 ft | 482 kts | 174° |
| 2026-05-06 21:19 | 33.32509 | 126.64608 | 36023 ft | 488 kts | 166° |
| 2026-05-06 21:19 | 33.26065 | 126.67210 | 36021 ft | 488 kts | 167° |
| 2026-05-06 21:20 | 33.19639 | 126.69697 | 36019 ft | 488 kts | 167° |
| 2026-05-06 21:20 | 33.13165 | 126.72206 | 36016 ft | 489 kts | 167° |
| 2026-05-06 21:21 | 33.06690 | 126.74722 | 36019 ft | 489 kts | 167° |
| 2026-05-06 21:21 | 33.00202 | 126.77237 | 36013 ft | 490 kts | 167° |
| 2026-05-06 21:22 | 32.93706 | 126.79753 | 36021 ft | 490 kts | 167° |
| 2026-05-06 21:22 | 32.87213 | 126.82269 | 36023 ft | 491 kts | 167° |
| 2026-05-06 21:23 | 32.80716 | 126.84783 | 36021 ft | 491 kts | 167° |
| 2026-05-06 21:23 | 32.74255 | 126.87278 | 36020 ft | 491 kts | 167° |
| 2026-05-06 21:24 | 32.67751 | 126.89787 | 36022 ft | 491 kts | 166° |
| 2026-05-06 21:24 | 32.61251 | 126.92290 | 36023 ft | 491 kts | 166° |
| 2026-05-06 21:25 | 32.54744 | 126.94792 | 36020 ft | 491 kts | 166° |
| 2026-05-06 21:25 | 32.48230 | 126.97267 | 36014 ft | 490 kts | 168° |
| 2026-05-06 21:26 | 32.41673 | 126.99459 | 36015 ft | 489 kts | 169° |
| 2026-05-06 21:26 | 32.35150 | 127.01596 | 36018 ft | 490 kts | 168° |
| 2026-05-06 21:27 | 32.28548 | 127.03812 | 36018 ft | 490 kts | 168° |
| 2026-05-06 21:27 | 32.22026 | 127.06008 | 36017 ft | 491 kts | 168° |
| 2026-05-06 21:28 | 32.15456 | 127.08219 | 36017 ft | 491 kts | 168° |
| 2026-05-06 21:28 | 32.08876 | 127.10430 | 36016 ft | 491 kts | 168° |
| 2026-05-06 21:29 | 32.02294 | 127.12637 | 36015 ft | 491 kts | 168° |
| 2026-05-06 21:29 | 31.95712 | 127.14830 | 36010 ft | 491 kts | 168° |
| 2026-05-06 21:30 | 31.89169 | 127.17005 | 36008 ft | 491 kts | 168° |
| 2026-05-06 21:30 | 31.82580 | 127.19194 | 36013 ft | 492 kts | 168° |
| 2026-05-06 21:31 | 31.75977 | 127.21385 | 36013 ft | 492 kts | 168° |
| 2026-05-06 21:31 | 31.69378 | 127.23572 | 36014 ft | 492 kts | 168° |
| 2026-05-06 21:32 | 31.62817 | 127.25743 | 36021 ft | 493 kts | 168° |
| 2026-05-06 21:32 | 31.52904 | 127.29017 | 36009 ft | 493 kts | 168° |
| 2026-05-06 21:33 | 31.46300 | 127.31195 | 36016 ft | 493 kts | 168° |
| 2026-05-06 21:33 | 31.39689 | 127.33371 | 36012 ft | 493 kts | 168° |
| 2026-05-06 21:34 | 31.33069 | 127.35548 | 36014 ft | 494 kts | 168° |
| 2026-05-06 21:34 | 31.26488 | 127.37709 | 36014 ft | 494 kts | 168° |
| 2026-05-06 21:35 | 31.19870 | 127.39896 | 36016 ft | 494 kts | 168° |
| 2026-05-06 21:35 | 31.13250 | 127.42107 | 36016 ft | 495 kts | 168° |
| 2026-05-06 21:36 | 31.06633 | 127.44314 | 36015 ft | 495 kts | 168° |
| 2026-05-06 21:36 | 30.99997 | 127.46521 | 36012 ft | 496 kts | 168° |
| 2026-05-06 21:37 | 30.93356 | 127.48724 | 36016 ft | 496 kts | 168° |
| 2026-05-06 21:37 | 30.86713 | 127.50924 | 36014 ft | 496 kts | 168° |
| 2026-05-06 21:38 | 30.80114 | 127.53107 | 36015 ft | 496 kts | 168° |
| 2026-05-06 21:38 | 30.73462 | 127.55305 | 36013 ft | 497 kts | 168° |
| 2026-05-06 21:39 | 30.66803 | 127.57501 | 36015 ft | 497 kts | 168° |
| 2026-05-06 21:39 | 30.60143 | 127.59695 | 36016 ft | 498 kts | 168° |
| 2026-05-06 21:40 | 30.53471 | 127.61890 | 36018 ft | 498 kts | 168° |
| 2026-05-06 21:40 | 30.46791 | 127.64084 | 36011 ft | 498 kts | 168° |
| 2026-05-06 21:41 | 30.41243 | 127.65904 | 36011 ft | 498 kts | 168° |
| 2026-05-06 21:41 | 30.33478 | 127.68449 | 36008 ft | 499 kts | 168° |
| 2026-05-06 21:42 | 30.27924 | 127.70267 | 36010 ft | 499 kts | 168° |
| 2026-05-06 21:42 | 30.21233 | 127.72447 | 36007 ft | 499 kts | 168° |
| 2026-05-06 21:43 | 30.14536 | 127.74621 | 36008 ft | 499 kts | 168° |
| 2026-05-06 21:43 | 30.07837 | 127.76793 | 36007 ft | 500 kts | 168° |
| 2026-05-06 21:44 | 30.01132 | 127.78967 | 36006 ft | 500 kts | 168° |
| 2026-05-06 21:44 | 29.94469 | 127.81124 | 36006 ft | 501 kts | 168° |
| 2026-05-06 21:45 | 29.87689 | 127.82912 | 36005 ft | 496 kts | 177° |
| 2026-05-06 21:45 | 29.80830 | 127.83257 | 36007 ft | 490 kts | 187° |
| 2026-05-06 21:46 | 29.74038 | 127.82604 | 36011 ft | 489 kts | 189° |
| 2026-05-06 21:46 | 29.67290 | 127.81896 | 36002 ft | 490 kts | 189° |
| 2026-05-06 21:47 | 29.60481 | 127.81217 | 36004 ft | 491 kts | 189° |
| 2026-05-06 21:47 | 29.53649 | 127.80563 | 36006 ft | 492 kts | 188° |
| 2026-05-06 21:48 | 29.46820 | 127.79918 | 36004 ft | 493 kts | 188° |
| 2026-05-06 21:48 | 29.40022 | 127.79277 | 36009 ft | 493 kts | 188° |
| 2026-05-06 21:49 | 29.33171 | 127.78629 | 36000 ft | 494 kts | 189° |
| 2026-05-06 21:49 | 29.26322 | 127.77982 | 36002 ft | 494 kts | 189° |
| 2026-05-06 21:50 | 29.19466 | 127.77335 | 35998 ft | 494 kts | 189° |
| 2026-05-06 21:50 | 29.12597 | 127.76687 | 36003 ft | 494 kts | 189° |
| 2026-05-06 21:51 | 29.05776 | 127.76046 | 36000 ft | 495 kts | 189° |
| 2026-05-06 21:51 | 28.98898 | 127.75399 | 35999 ft | 495 kts | 189° |
| 2026-05-06 21:52 | 28.92036 | 127.74755 | 35997 ft | 495 kts | 189° |
| 2026-05-06 21:52 | 28.85203 | 127.74115 | 35998 ft | 495 kts | 189° |
| 2026-05-06 21:53 | 28.78319 | 127.73470 | 35997 ft | 495 kts | 188° |
| 2026-05-06 21:53 | 28.71443 | 127.72827 | 35999 ft | 495 kts | 188° |
| 2026-05-06 21:54 | 28.64563 | 127.72185 | 35999 ft | 496 kts | 188° |
| 2026-05-06 21:54 | 28.57729 | 127.71548 | 36002 ft | 496 kts | 188° |
| 2026-05-06 21:55 | 28.50850 | 127.70907 | 36004 ft | 496 kts | 188° |
| 2026-05-06 21:55 | 28.43963 | 127.70267 | 36002 ft | 496 kts | 188° |
| 2026-05-06 21:56 | 28.37064 | 127.69626 | 36003 ft | 496 kts | 188° |
| 2026-05-06 21:56 | 28.30177 | 127.68987 | 36000 ft | 496 kts | 188° |
| 2026-05-06 21:57 | 28.23335 | 127.68353 | 35998 ft | 496 kts | 188° |
| 2026-05-06 21:57 | 28.16443 | 127.67716 | 36006 ft | 496 kts | 188° |
| 2026-05-06 21:58 | 28.09542 | 127.67078 | 35999 ft | 496 kts | 188° |
| 2026-05-06 21:58 | 28.02686 | 127.66445 | 35995 ft | 497 kts | 188° |
| 2026-05-06 21:59 | 27.95800 | 127.65811 | 36002 ft | 497 kts | 188° |
| 2026-05-06 21:59 | 27.88901 | 127.65176 | 36005 ft | 497 kts | 188° |
| 2026-05-06 22:00 | 27.82005 | 127.64542 | 36001 ft | 497 kts | 188° |
| 2026-05-06 22:00 | 27.75105 | 127.63908 | 36000 ft | 497 kts | 189° |
| 2026-05-06 22:01 | 27.68191 | 127.63274 | 36000 ft | 498 kts | 189° |
| 2026-05-06 22:01 | 27.61281 | 127.62641 | 36012 ft | 499 kts | 189° |
| 2026-05-06 22:02 | 27.54357 | 127.62008 | 36005 ft | 499 kts | 188° |
| 2026-05-06 22:02 | 27.47519 | 127.61186 | 36009 ft | 495 kts | 195° |
| 2026-05-06 22:03 | 27.40861 | 127.59383 | 36010 ft | 491 kts | 199° |
| 2026-05-06 22:03 | 27.34238 | 127.57462 | 36006 ft | 491 kts | 199° |
| 2026-05-06 22:04 | 27.27624 | 127.55577 | 36003 ft | 490 kts | 198° |
| 2026-05-06 22:04 | 27.21007 | 127.53723 | 36005 ft | 490 kts | 198° |
| 2026-05-06 22:05 | 27.14442 | 127.51896 | 36003 ft | 489 kts | 198° |
| 2026-05-06 22:05 | 27.07840 | 127.50060 | 36011 ft | 489 kts | 198° |
| 2026-05-06 22:06 | 27.01236 | 127.48224 | 36011 ft | 488 kts | 198° |
| 2026-05-06 22:06 | 26.94640 | 127.46391 | 36029 ft | 488 kts | 198° |
| 2026-05-06 22:07 | 26.88040 | 127.44560 | 36046 ft | 488 kts | 198° |
| 2026-05-06 22:07 | 26.81446 | 127.42732 | 36047 ft | 488 kts | 198° |
| 2026-05-06 22:08 | 26.74860 | 127.40909 | 36029 ft | 488 kts | 198° |
| 2026-05-06 22:08 | 26.68311 | 127.39098 | 36022 ft | 487 kts | 198° |
| 2026-05-06 22:09 | 26.61709 | 127.37274 | 36380 ft | 489 kts | 198° |
| 2026-05-06 22:09 | 26.58411 | 127.36366 | 36776 ft | 486 kts | 198° |
| 2026-05-06 22:09 | 26.55140 | 127.35465 | 37214 ft | 482 kts | 198° |
| 2026-05-06 22:10 | 26.51888 | 127.34571 | 37639 ft | 479 kts | 198° |
| 2026-05-06 22:10 | 26.48657 | 127.33681 | 37939 ft | 479 kts | 199° |
| 2026-05-06 22:10 | 26.42157 | 127.31889 | 38007 ft | 482 kts | 198° |
| 2026-05-06 22:11 | 26.35671 | 127.30107 | 37997 ft | 477 kts | 199° |
| 2026-05-06 22:11 | 26.29245 | 127.28344 | 38000 ft | 473 kts | 199° |
| 2026-05-06 22:12 | 26.22865 | 127.26594 | 37997 ft | 471 kts | 199° |
| 2026-05-06 22:12 | 26.16507 | 127.24852 | 38008 ft | 470 kts | 199° |
| 2026-05-06 22:13 | 26.10139 | 127.23108 | 38004 ft | 472 kts | 199° |
| 2026-05-06 22:13 | 26.03793 | 127.21372 | 38011 ft | 473 kts | 199° |
| 2026-05-06 22:14 | 25.97384 | 127.19622 | 38009 ft | 475 kts | 198° |
| 2026-05-06 22:14 | 25.90952 | 127.17869 | 38016 ft | 476 kts | 198° |
| 2026-05-06 22:15 | 25.84512 | 127.16115 | 38003 ft | 477 kts | 198° |
| 2026-05-06 22:15 | 25.78062 | 127.14360 | 38009 ft | 477 kts | 198° |
| 2026-05-06 22:16 | 25.71661 | 127.12620 | 38000 ft | 476 kts | 198° |
| 2026-05-06 22:16 | 25.65233 | 127.10875 | 38004 ft | 475 kts | 198° |
| 2026-05-06 22:17 | 25.58818 | 127.09135 | 38002 ft | 474 kts | 198° |
| 2026-05-06 22:17 | 25.52402 | 127.07396 | 38003 ft | 473 kts | 199° |
| 2026-05-06 22:18 | 25.46031 | 127.05671 | 38003 ft | 472 kts | 199° |
| 2026-05-06 22:18 | 25.39650 | 127.03943 | 38001 ft | 472 kts | 199° |
| 2026-05-06 22:19 | 25.33383 | 127.02261 | 37993 ft | 453 kts | 199° |
| 2026-05-06 22:19 | 25.27203 | 127.00590 | 38017 ft | 462 kts | 199° |
| 2026-05-06 22:20 | 25.20886 | 126.98866 | 38012 ft | 472 kts | 199° |
| 2026-05-06 22:20 | 25.14461 | 126.97132 | 38008 ft | 476 kts | 199° |
| 2026-05-06 22:21 | 25.08054 | 126.95413 | 38000 ft | 477 kts | 199° |
| 2026-05-06 22:21 | 25.01597 | 126.93681 | 37995 ft | 477 kts | 199° |
| 2026-05-06 22:22 | 24.95162 | 126.91954 | 37992 ft | 474 kts | 199° |
| 2026-05-06 22:22 | 24.88758 | 126.90236 | 37993 ft | 472 kts | 199° |
| 2026-05-06 22:23 | 24.82389 | 126.88529 | 37992 ft | 470 kts | 199° |
| 2026-05-06 22:23 | 24.76048 | 126.86830 | 37998 ft | 468 kts | 199° |
| 2026-05-06 22:24 | 24.69770 | 126.85150 | 37985 ft | 467 kts | 199° |
| 2026-05-06 22:24 | 24.63458 | 126.83463 | 38009 ft | 466 kts | 199° |
| 2026-05-06 22:25 | 24.57157 | 126.81781 | 37999 ft | 466 kts | 199° |
| 2026-05-06 22:25 | 24.50865 | 126.80102 | 37987 ft | 466 kts | 199° |
| 2026-05-06 22:26 | 24.44564 | 126.78423 | 37992 ft | 466 kts | 199° |
| 2026-05-06 22:26 | 24.38261 | 126.76746 | 37989 ft | 466 kts | 199° |
| 2026-05-06 22:27 | 24.31948 | 126.75067 | 37990 ft | 466 kts | 199° |
| 2026-05-06 22:27 | 24.25677 | 126.73401 | 37995 ft | 466 kts | 199° |
| 2026-05-06 22:28 | 24.19363 | 126.71726 | 37989 ft | 466 kts | 199° |
| 2026-05-06 22:28 | 24.13064 | 126.70022 | 37990 ft | 465 kts | 201° |
| 2026-05-06 22:29 | 24.07063 | 126.67553 | 37987 ft | 459 kts | 208° |
| 2026-05-06 22:29 | 24.01202 | 126.64777 | 37993 ft | 459 kts | 208° |
| 2026-05-06 22:30 | 23.95341 | 126.62017 | 37990 ft | 459 kts | 208° |
| 2026-05-06 22:30 | 23.90456 | 126.59739 | 37987 ft | 459 kts | 208° |
| 2026-05-06 22:31 | 23.83620 | 126.56567 | 37986 ft | 459 kts | 208° |
| 2026-05-06 22:31 | 23.77735 | 126.53842 | 37984 ft | 459 kts | 208° |
| 2026-05-06 22:32 | 23.72839 | 126.51576 | 37985 ft | 459 kts | 208° |
| 2026-05-06 22:32 | 23.66950 | 126.48852 | 37986 ft | 459 kts | 208° |
| 2026-05-06 22:33 | 23.61059 | 126.46130 | 37983 ft | 459 kts | 208° |
| 2026-05-06 22:33 | 23.55170 | 126.43412 | 37982 ft | 459 kts | 208° |
| 2026-05-06 22:34 | 23.49287 | 126.40699 | 37982 ft | 459 kts | 208° |
| 2026-05-06 22:34 | 23.43400 | 126.37986 | 37985 ft | 459 kts | 208° |
| 2026-05-06 22:35 | 23.37522 | 126.35281 | 37982 ft | 459 kts | 208° |
| 2026-05-06 22:35 | 23.31640 | 126.32576 | 37987 ft | 458 kts | 208° |
| 2026-05-06 22:36 | 23.25807 | 126.29896 | 37921 ft | 458 kts | 207° |
| 2026-05-06 22:36 | 23.19840 | 126.27154 | 37989 ft | 468 kts | 207° |
| 2026-05-06 22:37 | 23.13801 | 126.24382 | 37991 ft | 479 kts | 207° |
| 2026-05-06 22:37 | 23.07602 | 126.21544 | 37987 ft | 487 kts | 207° |
| 2026-05-06 22:38 | 23.01350 | 126.18685 | 37979 ft | 488 kts | 207° |
| 2026-05-06 22:38 | 22.95090 | 126.15824 | 37978 ft | 488 kts | 207° |
| 2026-05-06 22:39 | 22.88838 | 126.12964 | 37975 ft | 486 kts | 207° |
| 2026-05-06 22:39 | 22.82624 | 126.10090 | 37972 ft | 484 kts | 207° |
| 2026-05-06 22:40 | 22.76476 | 126.07238 | 37972 ft | 483 kts | 207° |
| 2026-05-06 22:40 | 22.70309 | 126.04382 | 37976 ft | 481 kts | 207° |
| 2026-05-06 22:41 | 22.61078 | 126.00118 | 37973 ft | 479 kts | 207° |
| 2026-05-06 22:42 | 22.54944 | 125.97289 | 37979 ft | 479 kts | 207° |
| 2026-05-06 22:42 | 22.48814 | 125.94464 | 37976 ft | 479 kts | 207° |
| 2026-05-06 22:43 | 22.42683 | 125.91642 | 37973 ft | 479 kts | 207° |
| 2026-05-06 22:43 | 22.36588 | 125.88839 | 37970 ft | 479 kts | 207° |
| 2026-05-06 22:44 | 22.30444 | 125.86016 | 37970 ft | 479 kts | 207° |
| 2026-05-06 22:44 | 22.24301 | 125.83196 | 37971 ft | 480 kts | 207° |
| 2026-05-06 22:45 | 22.18156 | 125.80378 | 37968 ft | 480 kts | 207° |
| 2026-05-06 22:45 | 22.12006 | 125.77561 | 37970 ft | 480 kts | 207° |
| 2026-05-06 22:46 | 22.05850 | 125.74743 | 37971 ft | 480 kts | 207° |
| 2026-05-06 22:46 | 21.99695 | 125.71928 | 37966 ft | 480 kts | 207° |
| 2026-05-06 22:47 | 21.93585 | 125.69138 | 37966 ft | 480 kts | 207° |
| 2026-05-06 22:47 | 21.87438 | 125.66332 | 37968 ft | 479 kts | 207° |
| 2026-05-06 22:48 | 21.81291 | 125.63529 | 37963 ft | 479 kts | 207° |
| 2026-05-06 22:48 | 21.75143 | 125.60728 | 37963 ft | 479 kts | 206° |
| 2026-05-06 22:49 | 21.69005 | 125.57935 | 37962 ft | 478 kts | 206° |
| 2026-05-06 22:49 | 21.62912 | 125.55164 | 37965 ft | 478 kts | 206° |
| 2026-05-06 22:50 | 21.56789 | 125.52382 | 37959 ft | 478 kts | 206° |
| 2026-05-06 22:50 | 21.50670 | 125.49605 | 37960 ft | 477 kts | 206° |
| 2026-05-06 22:51 | 21.44553 | 125.46831 | 37964 ft | 477 kts | 206° |
| 2026-05-06 22:51 | 21.38439 | 125.44061 | 37963 ft | 477 kts | 206° |
| 2026-05-06 22:52 | 21.32327 | 125.41294 | 37968 ft | 477 kts | 206° |
| 2026-05-06 22:52 | 21.26202 | 125.38524 | 37961 ft | 477 kts | 206° |
| 2026-05-06 22:53 | 21.20128 | 125.35780 | 37962 ft | 477 kts | 206° |
| 2026-05-06 22:53 | 21.14007 | 125.33016 | 37960 ft | 477 kts | 206° |
| 2026-05-06 22:54 | 21.07896 | 125.30259 | 37962 ft | 477 kts | 206° |
| 2026-05-06 22:54 | 21.01776 | 125.27501 | 37963 ft | 477 kts | 206° |
| 2026-05-06 22:55 | 20.95843 | 125.24377 | 37962 ft | 474 kts | 212° |
| 2026-05-06 22:55 | 20.90057 | 125.20976 | 37957 ft | 474 kts | 212° |
| 2026-05-06 22:56 | 20.84277 | 125.17572 | 37956 ft | 475 kts | 212° |
| 2026-05-06 22:56 | 20.78473 | 125.14184 | 37952 ft | 475 kts | 212° |
| 2026-05-06 22:57 | 20.72664 | 125.10812 | 37954 ft | 475 kts | 212° |
| 2026-05-06 22:57 | 20.66844 | 125.07439 | 37953 ft | 476 kts | 212° |
| 2026-05-06 22:58 | 20.61025 | 125.04069 | 37952 ft | 476 kts | 212° |
| 2026-05-06 22:58 | 20.55206 | 125.00701 | 37951 ft | 476 kts | 212° |
| 2026-05-06 22:59 | 20.49381 | 124.97332 | 37957 ft | 476 kts | 212° |
| 2026-05-06 22:59 | 20.43598 | 124.93991 | 37953 ft | 476 kts | 212° |
| 2026-05-06 23:00 | 20.37774 | 124.90628 | 37953 ft | 475 kts | 211° |
| 2026-05-06 23:00 | 20.31958 | 124.87273 | 37950 ft | 475 kts | 211° |
| 2026-05-06 23:01 | 20.26133 | 124.83916 | 37956 ft | 475 kts | 211° |
| 2026-05-06 23:01 | 20.20354 | 124.80588 | 37958 ft | 474 kts | 211° |
| 2026-05-06 23:02 | 20.14543 | 124.77245 | 37955 ft | 474 kts | 211° |
| 2026-05-06 23:02 | 20.08736 | 124.73906 | 37952 ft | 474 kts | 211° |
| 2026-05-06 23:03 | 20.02935 | 124.70575 | 37950 ft | 473 kts | 211° |
| 2026-05-06 23:03 | 19.97143 | 124.67250 | 37948 ft | 473 kts | 211° |
| 2026-05-06 23:04 | 19.91381 | 124.63946 | 37953 ft | 473 kts | 211° |
| 2026-05-06 23:04 | 19.85583 | 124.60624 | 37950 ft | 473 kts | 211° |
| 2026-05-06 23:05 | 19.79781 | 124.57303 | 37952 ft | 473 kts | 211° |
| 2026-05-06 23:05 | 19.73978 | 124.53984 | 37954 ft | 474 kts | 211° |
| 2026-05-06 23:06 | 19.68166 | 124.50662 | 37962 ft | 474 kts | 211° |
| 2026-05-06 23:06 | 19.62355 | 124.47344 | 37944 ft | 474 kts | 211° |
| 2026-05-06 23:07 | 19.56544 | 124.44028 | 37957 ft | 475 kts | 211° |
| 2026-05-06 23:07 | 19.50758 | 124.40730 | 37945 ft | 475 kts | 211° |
| 2026-05-06 23:08 | 19.44927 | 124.37408 | 37948 ft | 475 kts | 211° |
| 2026-05-06 23:08 | 19.39098 | 124.34091 | 37949 ft | 476 kts | 211° |
| 2026-05-06 23:09 | 19.33262 | 124.30772 | 37943 ft | 476 kts | 211° |
| 2026-05-06 23:09 | 19.27420 | 124.27452 | 37947 ft | 476 kts | 211° |
| 2026-05-06 23:10 | 19.21576 | 124.24134 | 37944 ft | 477 kts | 211° |
| 2026-05-06 23:10 | 19.15730 | 124.20818 | 37947 ft | 477 kts | 211° |
| 2026-05-06 23:11 | 19.09878 | 124.17501 | 37944 ft | 477 kts | 211° |
| 2026-05-06 23:11 | 19.04057 | 124.14204 | 37938 ft | 477 kts | 211° |
| 2026-05-06 23:12 | 18.98205 | 124.10892 | 37950 ft | 477 kts | 211° |
| 2026-05-06 23:12 | 18.92348 | 124.07581 | 37937 ft | 477 kts | 211° |
| 2026-05-06 23:13 | 18.86493 | 124.04272 | 37943 ft | 477 kts | 211° |
| 2026-05-06 23:13 | 18.80639 | 124.00967 | 37943 ft | 477 kts | 211° |
| 2026-05-06 23:14 | 18.74773 | 123.97658 | 37948 ft | 477 kts | 210° |
| 2026-05-06 23:14 | 18.68920 | 123.94359 | 37945 ft | 477 kts | 211° |
| 2026-05-06 23:15 | 18.63064 | 123.91061 | 37945 ft | 477 kts | 210° |
| 2026-05-06 23:15 | 18.57245 | 123.87786 | 37945 ft | 477 kts | 210° |
| 2026-05-06 23:16 | 18.51396 | 123.84497 | 37950 ft | 477 kts | 210° |
| 2026-05-06 23:16 | 18.45540 | 123.81206 | 37949 ft | 476 kts | 210° |
| 2026-05-06 23:17 | 18.39689 | 123.77921 | 37939 ft | 476 kts | 210° |
| 2026-05-06 23:17 | 18.33847 | 123.74644 | 37949 ft | 476 kts | 210° |
| 2026-05-06 23:18 | 18.28989 | 123.71920 | 37955 ft | 476 kts | 210° |
| 2026-05-06 23:18 | 18.23145 | 123.68646 | 37952 ft | 475 kts | 210° |
| 2026-05-06 23:19 | 18.17308 | 123.65378 | 37949 ft | 475 kts | 210° |
| 2026-05-06 23:19 | 18.11496 | 123.62127 | 37950 ft | 475 kts | 210° |
| 2026-05-06 23:20 | 18.05658 | 123.58864 | 37949 ft | 475 kts | 210° |
| 2026-05-06 23:20 | 17.99829 | 123.55608 | 37949 ft | 475 kts | 210° |
| 2026-05-06 23:21 | 17.93995 | 123.52352 | 37946 ft | 475 kts | 210° |
| 2026-05-06 23:21 | 17.88158 | 123.49096 | 37951 ft | 475 kts | 210° |
| 2026-05-06 23:22 | 17.82320 | 123.45842 | 37949 ft | 475 kts | 210° |
| 2026-05-06 23:22 | 17.76486 | 123.42593 | 37947 ft | 475 kts | 210° |
| 2026-05-06 23:23 | 17.70649 | 123.39345 | 37949 ft | 475 kts | 210° |
| 2026-05-06 23:23 | 17.64845 | 123.36116 | 37945 ft | 475 kts | 210° |
| 2026-05-06 23:24 | 17.58999 | 123.32868 | 37947 ft | 475 kts | 210° |
| 2026-05-06 23:24 | 17.53155 | 123.29627 | 37946 ft | 475 kts | 210° |
| 2026-05-06 23:25 | 17.47304 | 123.26385 | 37949 ft | 475 kts | 210° |
| 2026-05-06 23:25 | 17.41457 | 123.23147 | 37949 ft | 475 kts | 210° |
| 2026-05-06 23:26 | 17.35602 | 123.19905 | 37950 ft | 476 kts | 210° |
| 2026-05-06 23:26 | 17.29747 | 123.16666 | 37947 ft | 476 kts | 210° |
| 2026-05-06 23:27 | 17.23921 | 123.13445 | 37949 ft | 476 kts | 210° |
| 2026-05-06 23:27 | 17.18059 | 123.10207 | 37947 ft | 476 kts | 210° |
| 2026-05-06 23:28 | 17.12195 | 123.06969 | 37947 ft | 476 kts | 210° |
| 2026-05-06 23:28 | 17.06328 | 123.03733 | 37947 ft | 477 kts | 210° |
| 2026-05-06 23:29 | 17.00454 | 123.00495 | 37946 ft | 477 kts | 210° |
| 2026-05-06 23:29 | 16.94618 | 122.97280 | 37949 ft | 477 kts | 210° |
| 2026-05-06 23:30 | 16.88734 | 122.94041 | 37946 ft | 477 kts | 210° |
| 2026-05-06 23:30 | 16.82852 | 122.90806 | 37948 ft | 478 kts | 210° |
| 2026-05-06 23:31 | 16.76961 | 122.87568 | 37948 ft | 478 kts | 209° |
| 2026-05-06 23:31 | 16.71075 | 122.84334 | 37946 ft | 478 kts | 209° |
| 2026-05-06 23:32 | 16.65220 | 122.81120 | 37951 ft | 478 kts | 209° |
| 2026-05-06 23:32 | 16.59328 | 122.77888 | 37949 ft | 479 kts | 209° |
| 2026-05-06 23:33 | 16.53436 | 122.74658 | 37948 ft | 479 kts | 209° |
| 2026-05-06 23:33 | 16.47535 | 122.71424 | 37948 ft | 479 kts | 209° |
| 2026-05-06 23:34 | 16.41614 | 122.68183 | 37944 ft | 479 kts | 209° |
| 2026-05-06 23:34 | 16.35702 | 122.64950 | 37945 ft | 480 kts | 209° |
| 2026-05-06 23:35 | 16.29788 | 122.61717 | 37947 ft | 480 kts | 209° |
| 2026-05-06 23:35 | 16.23873 | 122.58484 | 37946 ft | 480 kts | 209° |
| 2026-05-06 23:36 | 16.17988 | 122.55270 | 37946 ft | 480 kts | 209° |
| 2026-05-06 23:36 | 16.12062 | 122.52036 | 37946 ft | 481 kts | 209° |
| 2026-05-06 23:37 | 16.06130 | 122.48800 | 37950 ft | 481 kts | 209° |
| 2026-05-06 23:37 | 16.00204 | 122.45570 | 37946 ft | 481 kts | 209° |
| 2026-05-06 23:38 | 15.94273 | 122.42339 | 37946 ft | 481 kts | 209° |
| 2026-05-06 23:38 | 15.88381 | 122.39132 | 37944 ft | 481 kts | 209° |
| 2026-05-06 23:39 | 15.82451 | 122.35906 | 37939 ft | 481 kts | 209° |
| 2026-05-06 23:39 | 15.76489 | 122.32665 | 37963 ft | 487 kts | 209° |
| 2026-05-06 23:40 | 15.70438 | 122.29377 | 37942 ft | 493 kts | 208° |
| 2026-05-06 23:40 | 15.67385 | 122.27719 | 37382 ft | 497 kts | 208° |
| 2026-05-06 23:40 | 15.64324 | 122.26058 | 36779 ft | 494 kts | 208° |
| 2026-05-06 23:40 | 15.61281 | 122.24407 | 35979 ft | 493 kts | 208° |
| 2026-05-06 23:41 | 15.58241 | 122.22759 | 35146 ft | 494 kts | 208° |
| 2026-05-06 23:41 | 15.55184 | 122.21101 | 34239 ft | 496 kts | 208° |
| 2026-05-06 23:41 | 15.52108 | 122.19434 | 33212 ft | 499 kts | 208° |
| 2026-05-06 23:41 | 15.49062 | 122.17783 | 32219 ft | 501 kts | 208° |
| 2026-05-06 23:42 | 15.45973 | 122.16110 | 31211 ft | 503 kts | 208° |
| 2026-05-06 23:42 | 15.42864 | 122.14426 | 30293 ft | 503 kts | 208° |
| 2026-05-06 23:42 | 15.39766 | 122.12749 | 29501 ft | 499 kts | 208° |
| 2026-05-06 23:42 | 15.36694 | 122.11087 | 28715 ft | 495 kts | 208° |
| 2026-05-06 23:43 | 15.33652 | 122.09442 | 28005 ft | 490 kts | 208° |
| 2026-05-06 23:43 | 15.30642 | 122.07814 | 27319 ft | 486 kts | 208° |
| 2026-05-06 23:43 | 15.27656 | 122.06199 | 26632 ft | 482 kts | 208° |
| 2026-05-06 23:43 | 15.24695 | 122.04599 | 26030 ft | 477 kts | 208° |
| 2026-05-06 23:44 | 15.21771 | 122.03019 | 25424 ft | 472 kts | 207° |
| 2026-05-06 23:44 | 15.18869 | 122.01451 | 24777 ft | 469 kts | 207° |
| 2026-05-06 23:44 | 15.15983 | 121.99892 | 24115 ft | 467 kts | 207° |
| 2026-05-06 23:44 | 15.13107 | 121.98339 | 23436 ft | 465 kts | 207° |
| 2026-05-06 23:45 | 15.10274 | 121.96811 | 22687 ft | 463 kts | 207° |
| 2026-05-06 23:45 | 15.07423 | 121.95272 | 22005 ft | 459 kts | 207° |
| 2026-05-06 23:45 | 15.04601 | 121.93750 | 21349 ft | 456 kts | 207° |
| 2026-05-06 23:45 | 15.01883 | 121.92132 | 20694 ft | 448 kts | 216° |
| 2026-05-06 23:46 | 14.99684 | 121.89879 | 20077 ft | 446 kts | 234° |
| 2026-05-06 23:46 | 14.98125 | 121.87137 | 19474 ft | 439 kts | 241° |
| 2026-05-06 23:46 | 14.96667 | 121.84366 | 18843 ft | 438 kts | 241° |
| 2026-05-06 23:46 | 14.95188 | 121.81610 | 18202 ft | 438 kts | 240° |
| 2026-05-06 23:47 | 14.93691 | 121.78868 | 17488 ft | 437 kts | 240° |
| 2026-05-06 23:47 | 14.92190 | 121.76148 | 16848 ft | 434 kts | 239° |
| 2026-05-06 23:47 | 14.90691 | 121.73446 | 16213 ft | 431 kts | 239° |
| 2026-05-06 23:47 | 14.89225 | 121.70805 | 15606 ft | 428 kts | 239° |
| 2026-05-06 23:48 | 14.87742 | 121.68135 | 15031 ft | 425 kts | 239° |
| 2026-05-06 23:48 | 14.86271 | 121.65495 | 14502 ft | 421 kts | 239° |
| 2026-05-06 23:48 | 14.84816 | 121.62890 | 14044 ft | 415 kts | 239° |
| 2026-05-06 23:48 | 14.83381 | 121.60321 | 13541 ft | 409 kts | 239° |
| 2026-05-06 23:49 | 14.81957 | 121.57774 | 12703 ft | 412 kts | 239° |
| 2026-05-06 23:49 | 14.80533 | 121.55224 | 12249 ft | 404 kts | 239° |
| 2026-05-06 23:49 | 14.79138 | 121.52727 | 11755 ft | 398 kts | 239° |
| 2026-05-06 23:49 | 14.77764 | 121.50272 | 11400 ft | 390 kts | 239° |
| 2026-05-06 23:50 | 14.76434 | 121.47891 | 11296 ft | 375 kts | 239° |
| 2026-05-06 23:50 | 14.74002 | 121.43537 | 10931 ft | 324 kts | 239° |
| 2026-05-06 23:50 | 14.72911 | 121.41586 | 10596 ft | 304 kts | 239° |
| 2026-05-06 23:51 | 14.71879 | 121.39743 | 10190 ft | 287 kts | 239° |
| 2026-05-06 23:51 | 14.70937 | 121.37991 | 10117 ft | 273 kts | 247° |
| 2026-05-06 23:51 | 14.70475 | 121.36062 | 9942 ft | 290 kts | 261° |
| 2026-05-06 23:51 | 14.70167 | 121.33899 | 9598 ft | 314 kts | 262° |
| 2026-05-06 23:52 | 14.69859 | 121.31650 | 9365 ft | 317 kts | 262° |
| 2026-05-06 23:52 | 14.69549 | 121.29407 | 9212 ft | 311 kts | 262° |
| 2026-05-06 23:52 | 14.69241 | 121.27223 | 9060 ft | 304 kts | 261° |
| 2026-05-06 23:52 | 14.68934 | 121.25099 | 8927 ft | 295 kts | 261° |
| 2026-05-06 23:53 | 14.68629 | 121.23011 | 8710 ft | 291 kts | 261° |
| 2026-05-06 23:53 | 14.68327 | 121.20955 | 8465 ft | 288 kts | 261° |
| 2026-05-06 23:53 | 14.68025 | 121.18917 | 8155 ft | 287 kts | 261° |
| 2026-05-06 23:53 | 14.67723 | 121.16877 | 7842 ft | 287 kts | 261° |
| 2026-05-06 23:54 | 14.67421 | 121.14848 | 7595 ft | 285 kts | 261° |
| 2026-05-06 23:54 | 14.67123 | 121.12877 | 7176 ft | 277 kts | 261° |
| 2026-05-06 23:54 | 14.66833 | 121.10909 | 6527 ft | 281 kts | 261° |
| 2026-05-06 23:54 | 14.66533 | 121.08899 | 6217 ft | 282 kts | 261° |
| 2026-05-06 23:55 | 14.66235 | 121.06911 | 5985 ft | 279 kts | 261° |
| 2026-05-06 23:55 | 14.65938 | 121.04933 | 5711 ft | 278 kts | 261° |
| 2026-05-06 23:55 | 14.65645 | 121.02960 | 5426 ft | 278 kts | 261° |
| 2026-05-06 23:55 | 14.65350 | 121.00990 | 5167 ft | 277 kts | 261° |
| 2026-05-06 23:56 | 14.65055 | 120.99030 | 4919 ft | 276 kts | 261° |
| 2026-05-06 23:56 | 14.64769 | 120.97130 | 4616 ft | 260 kts | 261° |
| 2026-05-06 23:56 | 14.64497 | 120.95322 | 4199 ft | 251 kts | 261° |
| 2026-05-06 23:56 | 14.64229 | 120.93532 | 3596 ft | 253 kts | 261° |
| 2026-05-06 23:57 | 14.63866 | 120.91768 | 3040 ft | 248 kts | 244° |
| 2026-05-06 23:57 | 14.62759 | 120.90518 | 2829 ft | 233 kts | 202° |
| 2026-05-06 23:57 | 14.61238 | 120.90332 | 2537 ft | 223 kts | 161° |
| 2026-05-06 23:57 | 14.60033 | 120.91219 | 2282 ft | 211 kts | 124° |
| 2026-05-06 23:58 | 14.59191 | 120.92426 | 2047 ft | 207 kts | 129° |
| 2026-05-06 23:58 | 14.58236 | 120.93553 | 1833 ft | 208 kts | 131° |
| 2026-05-06 23:58 | 14.57306 | 120.94605 | 1803 ft | 185 kts | 131° |
| 2026-05-06 23:58 | 14.56478 | 120.95547 | 1702 ft | 174 kts | 130° |
| 2026-05-06 23:59 | 14.55709 | 120.96450 | 1557 ft | 161 kts | 129° |
| 2026-05-06 23:59 | 14.55007 | 120.97312 | 1348 ft | 154 kts | 128° |
| 2026-05-06 23:59 | 14.54348 | 120.98179 | 1034 ft | 153 kts | 127° |
| 2026-05-06 23:59 | 14.53687 | 120.99027 | 737 ft | 154 kts | 131° |
| 2026-05-07 00:00 | 14.52940 | 120.99821 | 390 ft | 153 kts | 135° |
| 2026-05-07 00:00 | 14.52184 | 121.00584 | 87 ft | 149 kts | 133° |
| 2026-05-07 00:00 | 14.51526 | 121.01270 | 66 ft | 111 kts | 135° |
| 2026-05-07 00:00 | 14.51221 | 121.01585 | 68 ft | 76 kts | 135° |
| 2026-05-07 00:01 | 14.50967 | 121.01878 | 67 ft | 7 kts | 77° |
| 2026-05-07 00:01 | 14.51003 | 121.01915 | 64 ft | 7 kts | 43° |
| 2026-05-07 00:01 | 14.51049 | 121.01912 | 69 ft | 8 kts | 319° |
| 2026-05-07 00:01 | 14.51088 | 121.01870 | 63 ft | 9 kts | 313° |
| 2026-05-07 00:02 | 14.51130 | 121.01822 | 65 ft | 10 kts | 313° |
| 2026-05-07 00:02 | 14.51234 | 121.01716 | 65 ft | 34 kts | 315° |
| 2026-05-07 00:02 | 14.51403 | 121.01539 | 64 ft | 34 kts | 315° |
| 2026-05-07 00:02 | 14.51567 | 121.01370 | 66 ft | 32 kts | 314° |
| 2026-05-07 00:03 | 14.51629 | 121.01316 | 66 ft | 10 kts | 346° |
| 2026-05-07 00:03 | 14.51699 | 121.01333 | 71 ft | 11 kts | 354° |
| 2026-05-07 00:03 | 14.51752 | 121.01281 | 68 ft | 11 kts | 315° |
| 2026-05-07 00:03 | 14.51789 | 121.01254 | 63 ft | 5 kts | 350° |
| 2026-05-07 00:04 | 14.51814 | 121.01279 | 65 ft | 6 kts | 53° |
| 2026-05-07 00:04 | 14.51843 | 121.01311 | 67 ft | 6 kts | 45° |
| 2026-05-07 00:04 | 14.51847 | 121.01315 | 67 ft | 0 kts | 45° |